Time;durP1;ratioP1;P1;durP2;ratioP2;P2;SDS_P1;SDS_P2;PMS_P1;PMS_P2;Temp;Humidity;BMP_temperature;BMP_pressure;BME280_temperature;BME280_humidity;BME280_pressure;Samples;Min_cycle;Max_cycle;Signal;HPM_P1;HPM_P2
2023/11/01 00:00:56;;;;;;;5.25;0.90;;;;;;;12.99;46.15;100370.47;4975124;28;99975;-78
2023/11/01 00:03:24;;;;;;;2.60;0.30;;;;;;;13.06;45.90;100362.06;4974810;28;98915;-80
2023/11/01 00:05:50;;;;;;;0.90;0.30;;;;;;;12.87;46.52;100371.91;4978659;28;97512;-80
2023/11/01 00:08:17;;;;;;;1.80;0.30;;;;;;;12.82;46.77;100371.28;4975406;28;97651;-81
2023/11/01 00:10:44;;;;;;;1.85;0.30;;;;;;;12.93;46.56;100366.28;4973068;28;100472;-80
2023/11/01 00:13:10;;;;;;;1.80;0.20;;;;;;;13.04;47.22;100371.06;4974733;28;96941;-80
2023/11/01 00:15:37;;;;;;;1.02;0.30;;;;;;;13.10;46.30;100373.41;4975646;28;99565;-80
2023/11/01 00:18:04;;;;;;;1.10;0.43;;;;;;;13.09;46.03;100377.84;4972297;28;100887;-81
2023/11/01 00:20:32;;;;;;;1.95;0.43;;;;;;;12.95;45.57;100369.75;4974455;28;99188;-81
2023/11/01 00:22:59;;;;;;;3.15;0.50;;;;;;;12.82;45.30;100381.91;4978704;28;96777;-79
2023/11/01 00:25:26;;;;;;;1.52;0.22;;;;;;;12.95;46.51;100387.44;4975596;28;99216;-78
2023/11/01 00:27:52;;;;;;;0.82;0.32;;;;;;;13.03;46.48;100388.78;4975919;28;101897;-79
2023/11/01 00:30:19;;;;;;;1.02;0.40;;;;;;;12.99;45.82;100391.69;4969221;28;99695;-81
2023/11/01 00:32:46;;;;;;;1.45;0.40;;;;;;;12.97;45.83;100393.53;4975790;28;98435;-80
2023/11/01 00:35:12;;;;;;;8.07;0.60;;;;;;;12.97;45.93;100393.53;4974503;28;97472;-79
2023/11/01 00:37:40;;;;;;;6.90;0.60;;;;;;;13.10;45.71;100394.63;4971494;28;99427;-79
2023/11/01 00:40:08;;;;;;;3.63;0.50;;;;;;;13.15;46.32;100393.47;4974100;28;98885;-79
2023/11/01 00:42:36;;;;;;;1.80;0.30;;;;;;;12.90;45.85;100397.44;4971776;28;96778;-79
2023/11/01 00:45:03;;;;;;;2.13;0.47;;;;;;;12.91;46.03;100410.63;4974203;28;96933;-80
2023/11/01 00:47:32;;;;;;;2.97;0.40;;;;;;;12.85;46.10;100408.28;4973459;28;97633;-79
2023/11/01 00:49:59;;;;;;;3.78;0.55;;;;;;;13.00;46.85;100401.31;4975192;28;99565;-78
2023/11/01 00:52:25;;;;;;;1.65;0.28;;;;;;;12.84;46.37;100411.88;4974029;28;97398;-77
2023/11/01 00:54:53;;;;;;;0.90;0.40;;;;;;;12.72;46.29;100404.53;4973847;28;97373;-79
2023/11/01 00:57:20;;;;;;;1.88;0.40;;;;;;;13.09;45.98;100404.38;4973565;28;101118;-79
2023/11/01 00:59:47;;;;;;;2.33;0.50;;;;;;;12.97;45.42;100409.44;4971885;28;97599;-78
2023/11/01 01:02:13;;;;;;;1.85;0.50;;;;;;;13.08;46.04;100407.09;4973803;28;96935;-79
2023/11/01 01:04:45;;;;;;;2.80;0.60;;;;;;;13.09;45.83;100401.72;4973080;28;96984;-79
2023/11/01 01:07:11;;;;;;;1.05;0.28;;;;;;;13.26;45.06;100394.75;4972997;28;101595;-78
2023/11/01 01:09:38;;;;;;;5.45;0.30;;;;;;;13.24;44.93;100391.28;4970826;28;101514;-77
2023/11/01 01:12:07;;;;;;;1.17;0.30;;;;;;;13.22;45.99;100387.84;4973223;28;96695;-78
2023/11/01 01:14:33;;;;;;;4.15;0.55;;;;;;;13.35;45.65;100387.13;4970336;28;97159;-77
2023/11/01 01:17:00;;;;;;;3.33;0.30;;;;;;;13.26;46.13;100392.09;4975061;28;98173;-80
2023/11/01 01:19:26;;;;;;;2.00;0.40;;;;;;;13.43;46.05;100400.00;4972596;28;101214;-77
2023/11/01 01:21:53;;;;;;;4.20;0.32;;;;;;;13.27;46.52;100402.59;4972486;28;98572;-78
2023/11/01 01:24:19;;;;;;;2.40;0.32;;;;;;;13.29;46.40;100399.88;4974065;28;97070;-80
2023/11/01 01:26:47;;;;;;;2.70;0.68;;;;;;;13.35;47.19;100399.53;4974054;28;98024;-78
2023/11/01 01:29:15;;;;;;;1.13;0.40;;;;;;;13.20;47.62;100395.03;4973926;28;98913;-78
2023/11/01 01:31:41;;;;;;;1.17;0.30;;;;;;;13.22;47.85;100395.81;4966917;28;99075;-80
2023/11/01 01:34:07;;;;;;;1.73;0.40;;;;;;;13.26;47.37;100403.53;4973373;28;96816;-77
2023/11/01 01:36:34;;;;;;;2.65;0.40;;;;;;;13.16;47.95;100402.31;4973095;28;98911;-78
2023/11/01 01:39:00;;;;;;;1.20;0.40;;;;;;;13.22;48.06;100399.31;4974345;28;99021;-77
2023/11/01 01:41:27;;;;;;;2.30;0.40;;;;;;;13.41;48.04;100397.44;4965567;28;97949;-76
2023/11/01 01:43:53;;;;;;;2.58;0.43;;;;;;;13.34;48.17;100397.81;4975107;28;97212;-78
2023/11/01 01:46:22;;;;;;;2.28;0.68;;;;;;;13.38;48.71;100388.78;4970719;28;101069;-77
2023/11/01 01:48:49;;;;;;;5.25;0.60;;;;;;;13.60;48.73;100399.09;4972412;28;98902;-77
2023/11/01 01:51:17;;;;;;;1.70;0.38;;;;;;;13.42;49.25;100391.19;4970982;28;97220;-77
2023/11/01 01:53:45;;;;;;;2.33;0.30;;;;;;;13.56;47.64;100399.28;4972794;28;96972;-77
2023/11/01 01:56:12;;;;;;;5.40;1.25;;;;;;;13.37;47.40;100393.22;4971791;28;99185;-76
2023/11/01 01:58:40;;;;;;;2.15;0.38;;;;;;;13.40;46.99;100392.19;4973468;28;98797;-76
2023/11/01 02:01:07;;;;;;;1.15;0.52;;;;;;;13.25;46.93;100399.19;4977759;28;96922;-78
2023/11/01 02:03:36;;;;;;;2.25;0.40;;;;;;;13.25;47.54;100395.66;4972375;28;99348;-77
2023/11/01 02:06:03;;;;;;;1.80;0.40;;;;;;;13.19;48.16;100393.34;4981134;28;102816;-77
2023/11/01 02:08:30;;;;;;;0.55;0.28;;;;;;;13.23;47.73;100389.56;4971521;28;98768;-76
2023/11/01 02:10:57;;;;;;;2.35;0.32;;;;;;;13.35;47.48;100392.44;4971717;28;97242;-77
2023/11/01 02:13:23;;;;;;;2.05;0.47;;;;;;;13.33;48.07;100396.09;4969413;28;96965;-78
2023/11/01 02:15:50;;;;;;;3.35;0.50;;;;;;;13.32;48.92;100395.28;4971706;28;99433;-79
2023/11/01 02:18:16;;;;;;;3.75;0.47;;;;;;;13.49;48.82;100395.22;4971148;28;98743;-79
2023/11/01 02:20:46;;;;;;;4.95;1.27;;;;;;;13.35;48.93;100396.91;4965782;28;96778;-79
2023/11/01 02:23:17;;;;;;;2.22;0.45;;;;;;;13.56;48.62;100398.44;4971586;28;96864;-78
2023/11/01 02:25:45;;;;;;;2.83;0.40;;;;;;;13.52;48.64;100394.22;4972165;28;101346;-78
2023/11/01 02:28:12;;;;;;;1.45;0.40;;;;;;;13.50;48.75;100396.97;4971081;28;98537;-80
2023/11/01 02:30:40;;;;;;;3.00;0.50;;;;;;;13.49;49.30;100397.88;4970116;28;96852;-78
2023/11/01 02:33:06;;;;;;;2.53;0.80;;;;;;;13.72;48.52;100393.16;4973285;28;96790;-79
2023/11/01 02:35:32;;;;;;;1.27;0.63;;;;;;;13.77;47.72;100391.09;4966541;28;101848;-78
2023/11/01 02:37:59;;;;;;;1.13;0.30;;;;;;;13.78;48.26;100391.03;4967237;28;97492;-78
2023/11/01 02:40:25;;;;;;;4.40;0.70;;;;;;;13.85;49.24;100389.72;4974294;28;96797;-77
2023/11/01 02:42:55;;;;;;;7.47;0.57;;;;;;;13.45;48.90;100391.03;4971946;28;96942;-77
2023/11/01 02:45:21;;;;;;;0.98;0.30;;;;;;;13.56;49.34;100387.81;4974810;28;101014;-79
2023/11/01 02:47:48;;;;;;;1.00;0.40;;;;;;;13.61;49.63;100388.41;4970838;28;98976;-79
2023/11/01 02:50:17;;;;;;;3.97;0.40;;;;;;;13.53;49.82;100394.13;4975725;28;96735;-79
2023/11/01 02:52:46;;;;;;;5.05;0.60;;;;;;;13.37;51.08;100393.22;4978806;28;96993;-81
2023/11/01 02:55:14;;;;;;;2.40;0.40;;;;;;;13.26;52.00;100384.13;4975056;28;102185;-81
2023/11/01 02:57:42;;;;;;;4.18;0.50;;;;;;;13.66;51.68;100385.50;4976596;28;98156;-81
2023/11/01 03:00:18;;;;;;;2.63;0.40;;;;;;;13.53;51.41;100380.84;4978387;28;96902;-80
2023/11/01 03:02:45;;;;;;;0.55;0.40;;;;;;;13.39;49.46;100380.72;4983663;28;97346;-80
2023/11/01 03:05:11;;;;;;;2.17;0.47;;;;;;;13.18;50.04;100383.66;4976166;28;98892;-80
2023/11/01 03:07:37;;;;;;;5.75;0.40;;;;;;;13.55;48.97;100386.09;4975965;28;97721;-80
2023/11/01 03:10:05;;;;;;;0.65;0.43;;;;;;;13.35;49.19;100388.94;4976866;28;96709;-81
2023/11/01 03:12:31;;;;;;;0.73;0.30;;;;;;;13.63;49.43;100389.19;4976505;28;97656;-81
2023/11/01 03:14:58;;;;;;;2.30;0.40;;;;;;;13.65;48.84;100397.09;4981992;28;99247;-79
2023/11/01 03:17:25;;;;;;;23.08;3.60;;;;;;;13.69;48.39;100396.81;4975079;28;99152;-79
2023/11/01 03:19:52;;;;;;;7.75;0.70;;;;;;;13.35;48.54;100399.53;4975548;28;98494;-81
2023/11/01 03:22:19;;;;;;;1.65;0.40;;;;;;;13.35;48.44;100396.91;4976229;28;97171;-79
2023/11/01 03:24:45;;;;;;;6.85;0.60;;;;;;;13.34;47.96;100389.88;4973680;28;99160;-79
2023/11/01 03:27:12;;;;;;;1.67;0.50;;;;;;;13.48;46.79;100382.03;4974832;28;99056;-78
2023/11/01 03:29:38;;;;;;;3.33;0.50;;;;;;;13.55;46.63;100386.09;4976640;28;99021;-79
2023/11/01 03:32:05;;;;;;;1.65;0.55;;;;;;;13.48;46.31;100384.69;4976732;28;97310;-79
2023/11/01 03:34:33;;;;;;;3.80;0.43;;;;;;;13.60;46.91;100392.00;4970193;28;99036;-79
2023/11/01 03:36:59;;;;;;;0.90;0.52;;;;;;;13.58;47.71;100393.91;4980540;28;97747;-78
2023/11/01 03:39:25;;;;;;;3.17;0.70;;;;;;;13.29;48.88;100391.91;4978399;28;98508;-78
2023/11/01 03:41:52;;;;;;;1.98;0.45;;;;;;;13.34;49.25;100392.53;4978265;28;97094;-79
2023/11/01 03:44:18;;;;;;;3.35;0.70;;;;;;;13.22;49.90;100398.47;4975063;28;102116;-78
2023/11/01 03:46:45;;;;;;;3.28;0.63;;;;;;;13.38;50.14;100400.25;4974089;28;99253;-79
2023/11/01 03:49:12;;;;;;;3.40;0.70;;;;;;;13.67;49.73;100403.16;4976205;28;97097;-78
2023/11/01 03:51:40;;;;;;;3.15;0.60;;;;;;;13.59;50.14;100398.25;4977623;28;96856;-78
2023/11/01 03:54:07;;;;;;;3.38;0.50;;;;;;;13.69;50.28;100403.94;4978333;28;100656;-78
2023/11/01 03:56:33;;;;;;;1.65;0.40;;;;;;;13.32;50.22;100400.59;4973352;28;99506;-78
2023/11/01 03:58:59;;;;;;;1.70;0.40;;;;;;;13.47;50.22;100404.22;4971291;28;96923;-78
2023/11/01 04:01:25;;;;;;;3.03;0.52;;;;;;;13.51;50.42;100406.63;4971756;28;96967;-79
2023/11/01 04:03:52;;;;;;;5.57;0.55;;;;;;;13.36;50.56;100411.88;4974470;28;98977;-78
2023/11/01 04:06:18;;;;;;;2.33;0.70;;;;;;;13.37;50.78;100403.84;4974061;28;99368;-78
2023/11/01 04:08:47;;;;;;;2.10;0.47;;;;;;;13.64;50.26;100396.22;4974490;28;97405;-78
2023/11/01 04:11:13;;;;;;;1.65;0.40;;;;;;;13.48;50.40;100397.97;4976787;28;96977;-78
2023/11/01 04:13:40;;;;;;;4.00;0.55;;;;;;;13.21;51.53;100399.41;4972774;28;101309;-78
2023/11/01 04:16:07;;;;;;;3.90;0.82;;;;;;;13.31;51.52;100398.88;4969487;28;100157;-78
2023/11/01 04:18:34;;;;;;;1.75;0.52;;;;;;;13.16;51.33;100392.56;4972347;28;98060;-78
2023/11/01 04:21:00;;;;;;;3.70;0.85;;;;;;;13.32;51.00;100387.31;4975127;28;97473;-79
2023/11/01 04:23:27;;;;;;;1.30;0.70;;;;;;;13.23;51.50;100384.28;4974349;28;98036;-78
2023/11/01 04:25:54;;;;;;;3.85;0.80;;;;;;;13.22;51.56;100387.84;4974363;28;98114;-79
2023/11/01 04:28:21;;;;;;;2.42;0.50;;;;;;;13.21;51.10;100381.69;4970495;28;99241;-78
2023/11/01 04:30:47;;;;;;;2.28;0.50;;;;;;;13.42;50.93;100380.56;4973990;28;97285;-78
2023/11/01 04:33:14;;;;;;;1.83;0.65;;;;;;;13.26;51.60;100376.16;4969210;28;98908;-79
2023/11/01 04:35:40;;;;;;;2.58;0.60;;;;;;;13.33;51.63;100365.13;4973130;28;99062;-80
2023/11/01 04:38:06;;;;;;;1.35;0.52;;;;;;;13.45;51.43;100364.50;4973898;28;98753;-79
2023/11/01 04:40:33;;;;;;;2.88;0.80;;;;;;;13.06;51.55;100364.72;4972557;28;96835;-78
2023/11/01 04:43:01;;;;;;;2.28;0.57;;;;;;;12.98;52.32;100363.44;4967739;28;99139;-77
2023/11/01 04:45:28;;;;;;;1.85;0.57;;;;;;;13.27;51.60;100364.59;4973556;28;98986;-77
2023/11/01 04:47:54;;;;;;;2.45;0.50;;;;;;;13.18;51.35;100370.41;4972026;28;96948;-78
2023/11/01 04:50:20;;;;;;;4.90;0.70;;;;;;;13.12;52.15;100372.44;4972316;28;97300;-78
2023/11/01 04:52:47;;;;;;;2.03;0.80;;;;;;;13.20;51.73;100379.09;4973258;28;98979;-80
2023/11/01 04:55:13;;;;;;;2.85;0.60;;;;;;;13.06;52.45;100372.69;4974431;28;97596;-80
2023/11/01 04:57:41;;;;;;;2.63;0.70;;;;;;;13.36;51.76;100369.41;4973763;28;96880;-81
2023/11/01 05:00:11;;;;;;;3.83;0.70;;;;;;;13.34;50.67;100365.97;4973148;28;96913;-82
2023/11/01 05:02:37;;;;;;;1.88;0.77;;;;;;;13.39;50.80;100372.75;4970524;28;100155;-77
2023/11/01 05:05:05;;;;;;;4.07;0.70;;;;;;;13.31;50.34;100372.31;4971671;28;98966;-76
2023/11/01 05:07:32;;;;;;;4.07;0.70;;;;;;;13.41;50.47;100367.38;4966012;28;98394;-74
2023/11/01 05:09:58;;;;;;;4.13;0.80;;;;;;;13.28;50.35;100372.47;4973162;28;96773;-76
2023/11/01 05:12:25;;;;;;;1.00;0.55;;;;;;;13.47;49.81;100364.41;4967123;28;99227;-76
2023/11/01 05:14:51;;;;;;;1.73;0.70;;;;;;;13.27;50.47;100348.66;4968681;28;98833;-76
2023/11/01 05:17:19;;;;;;;3.20;0.55;;;;;;;12.83;52.11;100365.06;4969783;28;97149;-75
2023/11/01 05:19:46;;;;;;;2.92;0.90;;;;;;;12.93;52.72;100355.69;4972666;28;97346;-76
2023/11/01 05:22:12;;;;;;;4.35;0.77;;;;;;;13.21;51.68;100357.81;4975497;28;99179;-79
2023/11/01 05:24:39;;;;;;;6.60;1.00;;;;;;;13.12;52.36;100356.53;4972415;28;102043;-78
2023/11/01 05:27:07;;;;;;;2.53;0.60;;;;;;;13.21;51.92;100356.94;4972011;28;96809;-78
2023/11/01 05:29:33;;;;;;;9.88;1.00;;;;;;;13.45;51.69;100355.69;4972568;28;97049;-77
2023/11/01 05:32:00;;;;;;;5.65;1.05;;;;;;;13.44;51.77;100353.97;4980402;28;99213;-79
2023/11/01 05:34:27;;;;;;;5.22;0.85;;;;;;;13.18;52.31;100355.34;4973074;28;101245;-76
2023/11/01 05:36:54;;;;;;;5.55;0.90;;;;;;;13.43;52.00;100363.72;4981867;28;97018;-73
2023/11/01 05:39:20;;;;;;;2.60;0.90;;;;;;;13.28;52.86;100366.31;4983858;28;97104;-74
2023/11/01 05:41:47;;;;;;;1.58;0.93;;;;;;;13.40;52.33;100370.97;4979813;28;99816;-75
2023/11/01 05:44:13;;;;;;;3.65;1.50;;;;;;;13.39;52.59;100380.72;4981656;28;100094;-74
2023/11/01 05:46:40;;;;;;;3.45;0.80;;;;;;;13.35;53.03;100376.53;4983556;28;96739;-74
2023/11/01 05:49:08;;;;;;;2.03;0.57;;;;;;;13.38;52.48;100378.16;4978236;28;97232;-75
2023/11/01 05:51:36;;;;;;;4.10;0.95;;;;;;;13.45;52.40;100376.91;4981962;28;101146;-75
2023/11/01 05:54:02;;;;;;;4.07;0.80;;;;;;;13.35;51.42;100378.31;4978258;28;99014;-78
2023/11/01 05:56:29;;;;;;;1.70;0.70;;;;;;;13.11;52.80;100380.44;4975501;28;97523;-78
2023/11/01 05:58:55;;;;;;;1.58;0.70;;;;;;;13.29;52.52;100383.94;4972817;28;97022;-78
2023/11/01 06:01:23;;;;;;;4.20;0.60;;;;;;;13.19;52.64;100372.97;4972708;28;97270;-77
2023/11/01 06:03:50;;;;;;;4.38;0.80;;;;;;;13.24;52.27;100381.53;4970062;28;97742;-78
2023/11/01 06:06:17;;;;;;;5.07;0.65;;;;;;;13.04;53.33;100376.38;4968017;28;97215;-78
2023/11/01 06:08:44;;;;;;;1.98;0.90;;;;;;;13.10;53.31;100376.06;4974582;28;96810;-78
2023/11/01 06:11:11;;;;;;;3.50;0.70;;;;;;;13.21;52.85;100371.06;4972798;28;98937;-78
2023/11/01 06:13:37;;;;;;;4.32;0.82;;;;;;;13.06;53.24;100375.34;4969756;28;98994;-78
2023/11/01 06:16:05;;;;;;;1.55;0.73;;;;;;;13.22;53.31;100378.09;4972301;28;96781;-77
2023/11/01 06:18:31;;;;;;;4.00;1.00;;;;;;;13.26;53.73;100382.31;4970951;28;96845;-77
2023/11/01 06:20:58;;;;;;;5.28;1.38;;;;;;;13.21;53.43;100379.03;4971203;28;101293;-77
2023/11/01 06:23:24;;;;;;;3.00;1.00;;;;;;;13.15;53.86;100382.00;4971464;28;98867;-77
2023/11/01 06:25:52;;;;;;;3.25;1.08;;;;;;;13.28;54.21;100382.22;4972327;28;97218;-78
2023/11/01 06:28:19;;;;;;;2.22;0.93;;;;;;;13.14;54.38;100375.84;4968867;28;96812;-78
2023/11/01 06:30:46;;;;;;;5.88;1.00;;;;;;;13.35;54.23;100373.88;4973373;28;99350;-78
2023/11/01 06:33:12;;;;;;;2.92;0.80;;;;;;;13.30;55.00;100375.06;4966833;28;100783;-78
2023/11/01 06:35:39;;;;;;;3.80;1.00;;;;;;;13.47;54.66;100382.97;4971543;28;96901;-78
2023/11/01 06:38:06;;;;;;;3.47;1.00;;;;;;;13.42;54.88;100387.66;4967652;28;98945;-78
2023/11/01 06:40:32;;;;;;;5.28;1.00;;;;;;;13.31;55.57;100390.03;4966892;28;100103;-77
2023/11/01 06:43:00;;;;;;;2.40;1.10;;;;;;;13.50;54.88;100388.13;4955125;28;99674;-77
2023/11/01 06:45:26;;;;;;;7.10;1.13;;;;;;;13.79;54.06;100394.53;4958672;28;96838;-77
2023/11/01 06:47:53;;;;;;;7.60;1.30;;;;;;;13.63;54.32;100389.19;4972578;28;96891;-76
2023/11/01 06:50:19;;;;;;;2.85;1.10;;;;;;;14.06;53.25;100393.00;4971741;28;100309;-79
2023/11/01 06:52:46;;;;;;;6.22;1.10;;;;;;;13.74;53.69;100394.78;4971986;28;99237;-78
2023/11/01 06:55:12;;;;;;;2.60;1.20;;;;;;;13.67;53.41;100388.06;4970119;28;96934;-78
2023/11/01 06:57:39;;;;;;;1.13;0.70;;;;;;;13.53;53.97;100393.25;4965668;28;96888;-76
2023/11/01 07:00:08;;;;;;;5.13;1.25;;;;;;;13.66;54.09;100399.63;4969899;28;98899;-75
2023/11/01 07:02:35;;;;;;;8.52;1.08;;;;;;;13.76;53.86;100394.69;4966426;28;99112;-77
2023/11/01 07:05:01;;;;;;;4.22;1.15;;;;;;;13.77;53.37;100394.63;4971367;28;97129;-77
2023/11/01 07:07:28;;;;;;;5.28;1.00;;;;;;;13.79;53.32;100383.91;4970948;28;96908;-77
2023/11/01 07:09:55;;;;;;;3.63;1.10;;;;;;;13.66;53.71;100389.00;4971988;28;98901;-75
2023/11/01 07:12:22;;;;;;;4.53;0.90;;;;;;;13.81;53.96;100384.69;4969431;28;98953;-75
2023/11/01 07:14:49;;;;;;;5.68;1.20;;;;;;;13.68;54.44;100380.97;4972066;28;97247;-77
2023/11/01 07:17:17;;;;;;;3.53;1.20;;;;;;;13.49;55.18;100378.44;4970064;28;98544;-77
2023/11/01 07:19:43;;;;;;;6.00;1.30;;;;;;;13.92;54.33;100383.16;4969520;28;98453;-77
2023/11/01 07:22:10;;;;;;;2.35;1.00;;;;;;;13.96;54.19;100387.38;4971395;28;97695;-77
2023/11/01 07:24:36;;;;;;;2.97;1.20;;;;;;;13.76;55.01;100382.28;4967293;28;96789;-76
2023/11/01 07:27:03;;;;;;;5.80;1.02;;;;;;;13.66;55.51;100378.38;4967951;28;96852;-76
2023/11/01 07:29:29;;;;;;;2.90;1.13;;;;;;;13.50;56.69;100374.84;4969675;28;99270;-76
2023/11/01 07:31:56;;;;;;;2.78;1.00;;;;;;;13.52;57.12;100370.34;4975072;28;99226;-74
2023/11/01 07:34:24;;;;;;;6.88;1.10;;;;;;;13.67;56.76;100361.53;4972123;28;97617;-74
2023/11/01 07:36:51;;;;;;;17.00;2.22;;;;;;;13.91;56.28;100375.28;4964170;28;96869;-76
2023/11/01 07:39:17;;;;;;;4.22;1.05;;;;;;;13.85;56.60;100384.41;4971759;28;99391;-76
2023/11/01 07:41:44;;;;;;;4.00;1.45;;;;;;;13.81;56.76;100377.56;4971022;28;98463;-76
2023/11/01 07:44:11;;;;;;;2.40;0.93;;;;;;;14.07;56.21;100383.25;4973957;28;99326;-78
2023/11/01 07:46:37;;;;;;;10.27;4.90;;;;;;;14.03;56.86;100376.41;4973832;28;97005;-77
2023/11/01 07:49:04;;;;;;;2.63;1.20;;;;;;;13.81;57.62;100380.22;4970708;28;99160;-77
2023/11/01 07:51:33;;;;;;;2.88;1.15;;;;;;;13.95;57.38;100375.03;4963034;28;100312;-76
2023/11/01 07:53:59;;;;;;;2.40;1.20;;;;;;;14.33;56.53;100366.69;4972721;28;96772;-77
2023/11/01 07:56:27;;;;;;;5.85;1.63;;;;;;;14.34;56.75;100361.28;4972491;28;98804;-77
2023/11/01 07:58:57;;;;;;;4.47;1.20;;;;;;;14.63;56.24;100358.81;4968869;28;97983;-76
2023/11/01 08:01:23;;;;;;;3.65;1.30;;;;;;;14.52;56.36;100356.75;4968293;28;100321;-80
2023/11/01 08:03:50;;;;;;;3.33;1.27;;;;;;;14.95;55.12;100356.91;4971635;28;101238;-81
2023/11/01 08:06:16;;;;;;;5.93;1.17;;;;;;;14.93;54.78;100359.66;4963347;28;96774;-81
2023/11/01 08:08:44;;;;;;;5.80;1.42;;;;;;;14.79;55.46;100356.94;4978527;28;99227;-80
2023/11/01 08:11:10;;;;;;;3.50;1.20;;;;;;;14.78;55.95;100365.88;4967398;28;99186;-80
2023/11/01 08:13:36;;;;;;;3.45;1.60;;;;;;;15.04;55.69;100359.00;4972866;28;97340;-79
2023/11/01 08:16:04;;;;;;;8.02;1.50;;;;;;;14.88;55.66;100351.09;4972576;28;98406;-80
2023/11/01 08:18:31;;;;;;;5.57;1.42;;;;;;;14.91;56.26;100352.69;4969357;28;102048;-77
2023/11/01 08:20:57;;;;;;;2.25;1.17;;;;;;;14.72;57.28;100350.28;4967595;28;98812;-77
2023/11/01 08:23:23;;;;;;;3.05;1.60;;;;;;;14.62;57.37;100349.97;4971874;28;97020;-77
2023/11/01 08:25:51;;;;;;;5.22;2.00;;;;;;;14.68;57.93;100349.59;4972079;28;97779;-76
2023/11/01 08:28:21;;;;;;;3.45;1.73;;;;;;;14.70;57.43;100346.88;4965549;28;99199;-78
2023/11/01 08:30:47;;;;;;;11.75;1.95;;;;;;;14.75;57.63;100353.63;4970942;28;99314;-76
2023/11/01 08:33:13;;;;;;;7.22;1.42;;;;;;;14.75;58.17;100345.66;4966292;28;96837;-76
2023/11/01 08:35:40;;;;;;;6.75;1.67;;;;;;;15.40;57.35;100345.28;4967269;28;98744;-75
2023/11/01 08:38:08;;;;;;;4.78;1.73;;;;;;;15.88;55.41;100352.06;4972487;28;100028;-76
2023/11/01 08:40:35;;;;;;;6.68;2.33;;;;;;;15.93;54.69;100345.47;4962037;28;99033;-76
2023/11/01 08:43:03;;;;;;;3.60;1.60;;;;;;;15.98;54.55;100346.97;4965269;28;97235;-77
2023/11/01 08:45:29;;;;;;;5.97;1.70;;;;;;;15.72;55.58;100343.31;4970816;28;97569;-76
2023/11/01 08:47:55;;;;;;;5.95;1.60;;;;;;;15.60;56.14;100341.41;4971936;28;99269;-77
2023/11/01 08:50:22;;;;;;;4.05;1.73;;;;;;;15.77;56.22;100349.19;4972123;28;98869;-76
2023/11/01 08:52:48;;;;;;;3.75;1.80;;;;;;;15.62;56.69;100336.84;4971344;28;98672;-77
2023/11/01 08:55:16;;;;;;;9.10;1.92;;;;;;;15.77;56.97;100342.06;4969454;28;96946;-75
2023/11/01 08:57:44;;;;;;;7.45;1.70;;;;;;;15.77;56.95;100343.84;4973495;28;98838;-75
2023/11/01 09:00:14;;;;;;;4.22;1.73;;;;;;;16.41;55.87;100345.06;4972316;28;98803;-78
2023/11/01 09:02:41;;;;;;;6.13;1.60;;;;;;;16.40;55.30;100332.69;4965705;28;97273;-77
2023/11/01 09:05:09;;;;;;;3.03;1.85;;;;;;;16.56;54.65;100330.69;4968499;28;96985;-74
2023/11/01 09:07:36;;;;;;;8.80;2.55;;;;;;;16.35;54.95;100333.81;4965912;28;98760;-75
2023/11/01 09:10:03;;;;;;;4.53;2.70;;;;;;;16.19;55.86;100338.47;4965685;28;99654;-74
2023/11/01 09:12:29;;;;;;;4.53;2.08;;;;;;;16.37;55.49;100340.88;4968342;28;97385;-74
2023/11/01 09:14:55;;;;;;;6.25;1.67;;;;;;;16.41;55.44;100342.41;4971653;28;97199;-74
2023/11/01 09:17:24;;;;;;;9.15;2.13;;;;;;;16.68;54.89;100343.25;4969067;28;97765;-73
2023/11/01 09:19:50;;;;;;;3.47;2.05;;;;;;;16.69;55.02;100342.28;4968580;28;98894;-75
2023/11/01 09:22:17;;;;;;;4.82;1.83;;;;;;;16.83;54.47;100330.69;4970436;28;97589;-75
2023/11/01 09:24:43;;;;;;;6.93;2.88;;;;;;;16.92;54.29;100330.94;4967461;28;96989;-74
2023/11/01 09:27:10;;;;;;;9.30;2.10;;;;;;;16.73;54.83;100328.66;4970158;28;99185;-74
2023/11/01 09:29:36;;;;;;;5.57;2.03;;;;;;;17.06;54.83;100324.66;4968210;28;98747;-74
2023/11/01 09:32:03;;;;;;;5.88;1.95;;;;;;;17.15;54.62;100324.00;4968819;28;97054;-74
2023/11/01 09:34:31;;;;;;;5.72;1.80;;;;;;;17.30;54.35;100330.09;4970711;28;97111;-75
2023/11/01 09:36:57;;;;;;;7.80;2.08;;;;;;;17.13;55.38;100320.59;4965787;28;99070;-75
2023/11/01 09:39:24;;;;;;;5.15;1.90;;;;;;;17.06;56.32;100320.16;4964277;28;98884;-74
2023/11/01 09:41:56;;;;;;;4.03;1.88;;;;;;;16.99;57.03;100307.34;4970296;28;97169;-74
2023/11/01 09:44:23;;;;;;;2.53;1.90;;;;;;;16.96;57.52;100313.72;4962507;28;98935;-75
2023/11/01 09:46:50;;;;;;;4.93;1.85;;;;;;;17.06;57.15;100314.81;4966341;28;100491;-74
2023/11/01 09:49:16;;;;;;;3.75;1.77;;;;;;;17.06;57.39;100314.81;4969413;28;98686;-74
2023/11/01 09:51:45;;;;;;;4.97;1.75;;;;;;;17.25;57.21;100317.06;4970740;28;98056;-75
2023/11/01 09:54:12;;;;;;;5.65;1.65;;;;;;;17.75;55.43;100316.19;4970135;28;97059;-75
2023/11/01 09:56:45;;;;;;;9.70;2.35;;;;;;;17.77;55.65;100318.75;4970077;28;99109;-75
2023/11/01 09:59:12;;;;;;;6.15;1.67;;;;;;;17.68;55.69;100317.59;4969985;28;99170;-75
2023/11/01 10:01:40;;;;;;;8.48;1.83;;;;;;;17.68;55.80;100309.56;4968701;28;97738;-75
2023/11/01 10:04:07;;;;;;;8.90;1.80;;;;;;;17.70;55.98;100310.31;4968030;28;97410;-76
2023/11/01 10:06:35;;;;;;;6.22;1.70;;;;;;;17.82;55.47;100306.75;4968237;28;99366;-75
2023/11/01 10:09:03;;;;;;;3.97;1.95;;;;;;;18.01;55.11;100313.44;4969877;28;101428;-74
2023/11/01 10:11:31;;;;;;;5.97;1.50;;;;;;;17.89;55.41;100305.34;4970009;28;97206;-74
2023/11/01 10:13:58;;;;;;;3.58;1.77;;;;;;;17.88;55.78;100300.13;4964471;28;97860;-74
2023/11/01 10:16:25;;;;;;;4.38;1.38;;;;;;;18.00;55.98;100296.53;4968851;28;98679;-75
2023/11/01 10:18:52;;;;;;;2.65;1.45;;;;;;;17.98;56.54;100300.31;4965330;28;98738;-75
2023/11/01 10:21:18;;;;;;;5.25;1.70;;;;;;;17.86;56.99;100294.00;4970621;28;97985;-74
2023/11/01 10:23:44;;;;;;;3.15;1.63;;;;;;;17.87;56.96;100293.91;4971711;28;98201;-76
2023/11/01 10:26:12;;;;;;;6.50;1.90;;;;;;;17.80;57.21;100286.44;4965476;28;98923;-74
2023/11/01 10:28:42;;;;;;;5.90;1.75;;;;;;;17.48;58.47;100281.56;4968140;28;98862;-76
2023/11/01 10:31:08;;;;;;;7.10;1.65;;;;;;;17.57;58.78;100292.56;4969556;28;97339;-75
2023/11/01 10:33:35;;;;;;;5.80;1.70;;;;;;;17.38;59.67;100282.34;4971133;28;97397;-75
2023/11/01 10:36:03;;;;;;;3.90;2.00;;;;;;;17.79;59.23;100272.22;4967142;28;99249;-75
2023/11/01 10:38:31;;;;;;;5.38;1.40;;;;;;;18.20;57.95;100271.84;4969414;28;98616;-74
2023/11/01 10:40:59;;;;;;;6.32;2.15;;;;;;;18.26;57.17;100268.72;4970236;28;96895;-74
2023/11/01 10:43:28;;;;;;;4.03;2.00;;;;;;;18.32;56.96;100270.09;4971851;28;97318;-75
2023/11/01 10:45:56;;;;;;;8.27;4.05;;;;;;;18.34;57.57;100252.09;4966361;28;98992;-73
2023/11/01 10:48:23;;;;;;;6.15;2.05;;;;;;;18.73;56.41;100250.06;4969731;28;99318;-72
2023/11/01 10:50:49;;;;;;;6.47;1.55;;;;;;;18.65;56.91;100253.31;4968607;28;97062;-72
2023/11/01 10:53:16;;;;;;;5.75;2.22;;;;;;;18.63;56.93;100242.78;4969611;28;96877;-73
2023/11/01 10:55:43;;;;;;;4.05;1.98;;;;;;;18.66;56.93;100242.50;4968171;28;99237;-73
2023/11/01 10:58:15;;;;;;;10.63;3.08;;;;;;;18.63;57.61;100237.41;4970628;28;97992;-73
2023/11/01 11:00:48;;;;;;;5.50;2.75;;;;;;;18.54;57.59;100226.53;4970440;28;97143;-73
2023/11/01 11:03:21;;;;;;;9.15;3.08;;;;;;;18.25;58.58;100228.72;4970033;28;96885;-72
2023/11/01 11:05:50;;;;;;;12.23;2.58;;;;;;;18.36;58.86;100219.91;4969280;28;102263;-72
2023/11/01 11:08:17;;;;;;;6.82;2.55;;;;;;;18.67;58.22;100220.13;4972144;28;99357;-72
2023/11/01 11:10:43;;;;;;;3.08;2.00;;;;;;;18.73;58.56;100215.28;4972620;28;97013;-72
2023/11/01 11:13:25;;;;;;;5.80;2.00;;;;;;;18.92;57.98;100207.50;4973999;28;97442;-72
2023/11/01 11:15:59;;;;;;;6.05;2.53;;;;;;;18.84;57.87;100201.94;4972243;28;101812;-72
2023/11/01 11:18:26;;;;;;;9.27;2.47;;;;;;;18.93;57.95;100206.56;4973745;28;98248;-73
2023/11/01 11:20:53;;;;;;;8.18;1.75;;;;;;;18.83;58.00;100201.09;4971351;28;96777;-72
2023/11/01 11:23:22;;;;;;;6.63;1.98;;;;;;;18.48;59.13;100198.41;4970020;28;97707;-74